createdAt,value
2019-01-04T00:00:37.022Z,102215.39
2019-01-04T00:05:40.327Z,102212.89
2019-01-04T00:10:44.232Z,102220.23
2019-01-04T00:15:48.416Z,102228.18
2019-01-04T00:20:53.251Z,102219.63
2019-01-04T00:25:56.888Z,102222.98
2019-01-04T00:31:07.320Z,102229.05
2019-01-04T00:36:29.329Z,102227.76
2019-01-04T00:41:50.441Z,102231.41
2019-01-04T00:47:11.955Z,102240.61
2019-01-04T00:52:35.216Z,102240.27
2019-01-04T00:58:14.103Z,102228.84
2019-01-04T01:04:37.118Z,102233.16
2019-01-04T01:36:39.584Z,102232.80
2019-01-04T01:42:36.852Z,102228.31
2019-01-04T01:48:13.900Z,102235.24
2019-01-04T01:53:50.337Z,102230.34
2019-01-04T01:59:13.989Z,102228.73
2019-01-04T02:04:34.950Z,102229.38
2019-01-04T02:09:55.413Z,102243.72
2019-01-04T02:15:17.353Z,102240.66
2019-01-04T02:20:19.771Z,102240.73
2019-01-04T02:25:22.277Z,102229.48
2019-01-04T02:30:24.568Z,102225.42
2019-01-04T02:35:27.694Z,102233.30
2019-01-04T02:40:29.907Z,102223.89
2019-01-04T02:45:32.255Z,102219.45
2019-01-04T02:50:35.275Z,102208.17
2019-01-04T02:55:37.305Z,102215.01
2019-01-04T03:00:39.455Z,102210.84
2019-01-04T03:05:41.476Z,102205.47
2019-01-04T03:10:43.702Z,102199.95
2019-01-04T03:15:47.189Z,102201.89
2019-01-04T03:20:49.347Z,102190.97
2019-01-04T03:25:51.416Z,102182.30
2019-01-04T03:30:54.711Z,102188.02
2019-01-04T03:35:59.664Z,102174.56
2019-01-04T03:41:03.046Z,102175.50
2019-01-04T03:46:05.183Z,102173.83
2019-01-04T03:51:07.165Z,102182.52
2019-01-04T03:56:09.413Z,102178.89
2019-01-04T04:01:11.628Z,102167.44
2019-01-04T04:06:19.452Z,102162.47
2019-01-04T04:11:21.690Z,102157.55
2019-01-04T04:16:23.705Z,102141.88
2019-01-04T04:21:25.740Z,102138.42
2019-01-04T04:26:27.786Z,102134.06
2019-01-04T04:31:30.089Z,102124.63
2019-01-04T04:36:32.366Z,102117.28
2019-01-04T04:41:34.475Z,102103.91
2019-01-04T04:46:36.570Z,102103.26
2019-01-04T04:51:38.568Z,102103.26
2019-01-04T04:56:40.660Z,102093.27
2019-01-04T05:01:42.772Z,102095.36
2019-01-04T05:06:44.889Z,102096.69
2019-01-04T05:11:46.950Z,102088.73
2019-01-04T05:16:48.918Z,102082.84
2019-01-04T05:21:50.993Z,102080.53
2019-01-04T05:26:53.170Z,102090.31
2019-01-04T05:31:55.234Z,102094.59
2019-01-04T05:36:57.237Z,102088.87
2019-01-04T05:42:00.960Z,102084.63
2019-01-04T05:47:03.064Z,102087.61
2019-01-04T05:52:05.057Z,102087.16
2019-01-04T05:57:07.018Z,102083.38
2019-01-04T06:02:08.968Z,102072.12
2019-01-04T06:07:11.050Z,102072.48
2019-01-04T06:12:13.256Z,102079.59
2019-01-04T06:17:15.305Z,102081.97
2019-01-04T06:22:17.554Z,102079.64
2019-01-04T06:27:19.769Z,102063.84
2019-01-04T06:32:22.020Z,102064.78
2019-01-04T06:37:24.025Z,102057.77
2019-01-04T06:42:26.301Z,102056.86
2019-01-04T06:47:28.365Z,102064.03
2019-01-04T06:52:30.449Z,102064.55
2019-01-04T06:57:32.438Z,102062.11
2019-01-04T07:02:34.554Z,102074.33
2019-01-04T07:07:36.937Z,102066.30
2019-01-04T07:12:39.091Z,102064.15
2019-01-04T07:17:41.243Z,102066.72
2019-01-04T07:22:43.252Z,102067.61
2019-01-04T07:27:45.325Z,102064.70
2019-01-04T07:32:47.515Z,102064.13
2019-01-04T07:37:49.682Z,102056.28
2019-01-04T07:42:52.067Z,102054.27
2019-01-04T07:47:54.154Z,102040.16
2019-01-04T07:52:56.369Z,102045.38
2019-01-04T07:57:58.574Z,102042.42
2019-01-04T08:03:14.974Z,102036.59
2019-01-04T08:08:17.195Z,102038.48
2019-01-04T08:13:19.215Z,102031.95
2019-01-04T08:18:21.306Z,102035.07
2019-01-04T08:23:23.693Z,102029.39
2019-01-04T08:28:26.001Z,102024.45
2019-01-04T08:33:30.332Z,102013.81
2019-01-04T08:38:32.407Z,102005.53
2019-01-04T08:43:34.490Z,101978.60
2019-01-04T08:48:36.477Z,101985.37
2019-01-04T08:54:01.655Z,102001.18
2019-01-04T08:59:04.539Z,101983.86
2019-01-04T09:04:06.558Z,101978.06
2019-01-04T09:09:10.781Z,101976.69
2019-01-04T09:14:12.914Z,101959.53
2019-01-04T09:19:14.982Z,101968.67
2019-01-04T09:24:17.163Z,101958.50
2019-01-04T09:29:20.770Z,101966.02
2019-01-04T09:34:22.790Z,101973.80
2019-01-04T09:39:25.784Z,101976.45
2019-01-04T09:44:27.962Z,101971.00
2019-01-04T09:49:29.940Z,101970.94
2019-01-04T09:54:32.048Z,101963.45
2019-01-04T09:59:34.039Z,101946.53
2019-01-04T10:04:36.231Z,101935.53
2019-01-04T10:09:38.423Z,101922.24
2019-01-04T10:14:40.548Z,101890.02
2019-01-04T10:19:42.571Z,101878.45
2019-01-04T10:24:44.671Z,101856.55
2019-01-04T10:29:46.743Z,101850.30
2019-01-04T10:34:49.689Z,101840.44
2019-01-04T10:39:51.657Z,101825.83
2019-01-04T10:44:55.661Z,101809.80
2019-01-04T10:49:59.824Z,101805.44
2019-01-04T10:55:02.726Z,101799.17
2019-01-04T11:00:09.139Z,101780.58
2019-01-04T11:05:15.339Z,101766.89
2019-01-04T11:10:18.455Z,101743.55
2019-01-04T11:15:21.178Z,101746.63
2019-01-04T11:20:41.292Z,101741.25
2019-01-04T11:26:06.007Z,101733.53
2019-01-04T11:31:28.044Z,101721.77
2019-01-04T11:37:02.397Z,101717.59
2019-01-04T11:42:30.840Z,101701.37
2019-01-04T11:48:16.439Z,101685.55
2019-01-04T11:53:23.593Z,101687.73
2019-01-04T11:58:28.511Z,101671.17
2019-01-04T12:03:32.690Z,101670.81
2019-01-04T12:08:37.930Z,101668.26
2019-01-04T12:13:43.729Z,101653.82
2019-01-04T12:18:50.130Z,101647.80
2019-01-04T12:23:52.985Z,101623.20
2019-01-04T12:28:56.905Z,101618.78
2019-01-04T12:33:59.487Z,101616.16
2019-01-04T12:39:03.792Z,101615.95
2019-01-04T12:44:24.533Z,101609.49
2019-01-04T12:49:45.296Z,101599.42
2019-01-04T12:54:47.522Z,101576.77
2019-01-04T12:59:50.118Z,101579.27
2019-01-04T13:04:52.015Z,101556.03
2019-01-04T13:09:53.910Z,101561.23
2019-01-04T13:14:55.870Z,101543.14
2019-01-04T13:19:57.821Z,101528.22
2019-01-04T13:24:59.709Z,101556.52
2019-01-04T13:30:02.133Z,101539.45
2019-01-04T13:35:05.789Z,101521.89
2019-01-04T13:40:07.963Z,101529.58
2019-01-04T13:45:10.090Z,101523.91
2019-01-04T13:50:12.092Z,101518.95
2019-01-04T13:55:14.052Z,101517.92
2019-01-04T14:00:16.359Z,101516.81
2019-01-04T14:05:18.245Z,101516.89
2019-01-04T14:10:20.283Z,101525.64
2019-01-04T14:15:22.217Z,101533.80
2019-01-04T14:20:24.108Z,101527.22
2019-01-04T14:25:26.056Z,101533.91
2019-01-04T14:30:27.965Z,101516.06
2019-01-04T14:35:29.867Z,101506.88
2019-01-04T14:40:31.773Z,101500.41
2019-01-04T14:45:33.863Z,101499.81
2019-01-04T14:50:35.772Z,101502.88
2019-01-04T14:55:37.661Z,101495.28
2019-01-04T15:00:39.572Z,101491.48
2019-01-04T15:05:41.469Z,101493.18
2019-01-04T15:10:43.390Z,101489.60
2019-01-04T15:15:45.333Z,101496.42
2019-01-04T15:20:47.301Z,101477.64
2019-01-04T15:25:49.227Z,101482.06
2019-01-04T15:30:52.177Z,101487.24
2019-01-04T15:35:54.099Z,101499.19
2019-01-04T15:40:56.000Z,101492.56
2019-01-04T15:45:58.045Z,101474.86
2019-01-04T15:50:59.933Z,101463.52
2019-01-04T15:56:02.286Z,101457.86
2019-01-04T16:01:04.174Z,101450.27
2019-01-04T16:06:06.093Z,101441.55
2019-01-04T16:11:08.037Z,101419.95
2019-01-04T16:16:09.979Z,101429.49
2019-01-04T16:21:11.862Z,101426.55
2019-01-04T16:26:14.048Z,101425.62
2019-01-04T16:31:15.956Z,101412.64
2019-01-04T16:36:17.844Z,101408.48
2019-01-04T16:41:19.792Z,101407.89
2019-01-04T16:46:21.807Z,101410.28
2019-01-04T16:51:23.694Z,101408.75
2019-01-04T16:56:25.702Z,101401.55
2019-01-04T17:01:27.690Z,101416.62
2019-01-04T17:06:29.733Z,101388.41
2019-01-04T17:11:31.742Z,101396.27
2019-01-04T17:16:33.665Z,101397.30
2019-01-04T17:21:35.605Z,101390.62
2019-01-04T17:26:37.508Z,101385.13
2019-01-04T17:31:39.427Z,101386.83
2019-01-04T17:36:41.366Z,101395.94
2019-01-04T17:41:43.266Z,101402.90
2019-01-04T17:46:45.960Z,101398.40
2019-01-04T17:51:48.060Z,101392.09
2019-01-04T17:56:50.008Z,101408.24
2019-01-04T18:01:52.116Z,101406.41
2019-01-04T18:06:54.120Z,101412.49
2019-01-04T18:11:56.069Z,101424.86
2019-01-04T18:16:58.024Z,101406.57
2019-01-04T18:22:01.144Z,101411.05
2019-01-04T18:27:03.623Z,101422.67
2019-01-04T18:32:05.578Z,101419.05
2019-01-04T18:37:07.613Z,101411.47
2019-01-04T18:42:09.706Z,101411.47
2019-01-04T18:47:11.594Z,101410.23
2019-01-04T18:52:13.809Z,101399.19
2019-01-04T18:57:15.740Z,101405.89
2019-01-04T19:02:17.641Z,101403.63
2019-01-04T19:07:19.547Z,101410.23
2019-01-04T19:12:21.465Z,101416.73
2019-01-04T19:17:23.353Z,101418.42
2019-01-04T19:22:25.279Z,101419.87
2019-01-04T19:27:27.503Z,101417.66
2019-01-04T19:32:29.448Z,101424.23
2019-01-04T19:37:31.445Z,101418.11
2019-01-04T19:42:33.470Z,101405.85
2019-01-04T19:47:35.379Z,101401.30
2019-01-04T19:52:37.463Z,101394.52
2019-01-04T19:57:39.476Z,101381.94
2019-01-04T20:02:41.373Z,101378.34
2019-01-04T20:08:40.067Z,101384.47
2019-01-04T20:14:53.510Z,101376.13
2019-01-04T20:20:26.996Z,101361.89
2019-01-04T20:25:43.818Z,101357.72
2019-01-04T20:30:58.564Z,101353.93
2019-01-04T20:36:18.420Z,101353.17
2019-01-04T20:41:52.341Z,101361.43
2019-01-04T20:47:12.627Z,101338.27
2019-01-04T20:52:32.916Z,101319.48
2019-01-04T20:57:52.846Z,101338.27
2019-01-04T21:03:17.268Z,101337.16
2019-01-04T21:08:38.034Z,101329.31
2019-01-04T21:14:02.449Z,101324.63
2019-01-04T21:19:22.758Z,101321.05
2019-01-04T21:24:44.466Z,101297.26
2019-01-04T21:30:15.603Z,101297.26
2019-01-04T21:35:36.233Z,101303.52
2019-01-04T21:40:56.269Z,101289.48
2019-01-04T21:46:16.391Z,101288.59
2019-01-04T21:51:45.550Z,101284.50
2019-01-04T21:57:12.825Z,101261.59
2019-01-04T22:02:34.456Z,101261.59
2019-01-04T22:08:06.176Z,101260.20
2019-01-04T22:13:33.501Z,101259.63
2019-01-04T22:18:58.179Z,101254.05
2019-01-04T22:24:15.011Z,101260.06
2019-01-04T22:29:48.677Z,101259.05
2019-01-04T22:35:18.986Z,101241.90
2019-01-04T22:40:33.982Z,101227.89
2019-01-04T22:45:54.515Z,101218.80
2019-01-04T22:51:22.045Z,101202.69
2019-01-04T22:56:42.246Z,101192.77
2019-01-04T23:02:08.328Z,101180.08
2019-01-04T23:07:42.044Z,101176.23
2019-01-04T23:12:58.369Z,101173.91
2019-01-04T23:18:19.941Z,101172.39
2019-01-04T23:23:40.316Z,101173.77
2019-01-04T23:28:53.125Z,101178.41
2019-01-04T23:34:13.278Z,101165.10
2019-01-04T23:39:39.174Z,101165.66
2019-01-04T23:45:09.760Z,101155.72
2019-01-04T23:50:30.101Z,101147.59
2019-01-04T23:55:49.535Z,101132.52
